Cheshire, Connecticut
Current Conditions -  °F | °C
As of 5:12 PM on Wednesday 22 Oct 2014 (Local Time) from KMMK Reporting Station
Overcast Overcast  
Wind Chill: 11°   Ceiling: 1500
Heat Index: 11°   Visibility: 7mi
Dew Point:   Wind: 13mph
Humidity: 89%   Direction: 10°N
Pressure: 29.85"   Gusts: 21mph
Location:  41.5°N, 72.9°W
Report Text: KMMK 222112Z AUTO 01011G18KT 7SM BKN015 OVC021 11/09 A2985 RMK AO2 RAE06 P0000 T01060089 TSNO
Loading
Personal Weather Stations






























Interactive Weather Map
Tropical Storm Tracking
New forecast layout! Learn more

10-Day Weather Forecast

Advertisements
Track Severe Weather on mobile